»·PEaware :: EAW291 KRNO-KSBA

EAW291 :: KRNO-KSBA

FLIGHT INFORMATION

Flight Status: Arrived
Operator: Unknown
More flights by this operator :: More flights under this callsign
Pilot: Dave P. (45)
Aircraft: BOEING 737-800
(B738)
More flights by this aircraft type
Origin: KRNO Reno/Tahoe Intl
United States
Destination: KSBA Santa Barbara Mun
United States
More flights between these airports :: More routes between these airports
Route: +ZEFFR6 DARBI FRA J7 DERBB
File this flight plan on PilotEdge
Remarks: PBN / A1B1C1D1S1S2 DOF / 181107 REG / N738PM EET / KZLA0039 OPR / EAW PER / D RMK / TCAS SIMBRIEF
Altitude:
(Current/Filed)
34,000ft
Speed:
(Current/Filed)
456kts
Departed: 06-Nov-18 05:17 PM
Arrived: 06-Nov-18 06:18 PM
Distance/Time
Traveled:
304nm/1:01
Distance/Time
To Go:
Arrived

Flight Plot

Page will automatically refresh every two minutes.

Flight plan parsing failed; only flown route is shown


Map Options




Map Legend


Flown Route
Filed Route
Departure Airport
Arrival Airport
Navaid (VOR, NDB)
Fix

Horizontal Profiles

Position Reports

Time Latitude Longitude Heading Altitude Ground
Speed
06-Nov-18 17:03 39.505200 -119.772229 245 4423ft 0kts
06-Nov-18 17:04 39.505200 -119.772229 245 4423ft 0kts
06-Nov-18 17:05 39.505200 -119.772229 245 4423ft 0kts
06-Nov-18 17:06 39.505200 -119.772229 245 4423ft 0kts
06-Nov-18 17:07 39.505200 -119.772229 245 4423ft 0kts
06-Nov-18 17:08 39.505200 -119.772229 245 4423ft 0kts
06-Nov-18 17:09 39.505200 -119.772229 245 4423ft 0kts
06-Nov-18 17:10 39.505200 -119.772229 245 4423ft 0kts
06-Nov-18 17:11 39.505200 -119.772229 245 4423ft 0kts
06-Nov-18 17:12 39.505200 -119.772229 245 4423ft 0kts
06-Nov-18 17:13 39.505224 -119.771492 295 4423ft 2kts
06-Nov-18 17:14 39.505075 -119.771220 314 4423ft 0kts
06-Nov-18 17:15 39.505075 -119.771221 314 4423ft 0kts
06-Nov-18 17:16 39.506098 -119.771493 359 4423ft 11kts
06-Nov-18 17:17 39.510969 -119.771475 0 4423ft 20kts
06-Nov-18 17:18 39.513791 -119.770749 91 4423ft 4kts
06-Nov-18 17:19 39.513781 -119.770473 92 4423ft 2kts
06-Nov-18 17:20 39.511435 -119.769226 180 4423ft 41kts
06-Nov-18 17:21 39.473506 -119.770008 186 5313ft 178kts
06-Nov-18 17:22 39.417102 -119.769377 179 6998ft 245kts
06-Nov-18 17:23 39.340541 -119.769663 180 9432ft 290kts
06-Nov-18 17:24 39.253771 -119.767288 180 11396ft 346kts
06-Nov-18 17:25 39.150486 -119.763336 181 13532ft 385kts
06-Nov-18 17:26 39.040892 -119.759214 182 16352ft 402kts
06-Nov-18 17:27 38.926450 -119.754931 182 18923ft 418kts
06-Nov-18 17:28 38.808305 -119.750499 182 21249ft 432kts
06-Nov-18 17:29 38.686173 -119.745923 182 23245ft 445kts
06-Nov-18 17:30 38.560936 -119.741253 182 25080ft 456kts
06-Nov-18 17:31 38.432704 -119.736502 182 26747ft 465kts
06-Nov-18 17:32 38.301906 -119.731670 181 28241ft 474kts
06-Nov-18 17:33 38.169114 -119.717349 177 29689ft 480kts
06-Nov-18 17:34 38.037032 -119.701585 178 31463ft 475kts
06-Nov-18 17:35 37.905677 -119.686352 178 33066ft 471kts
06-Nov-18 17:36 37.775740 -119.671433 179 34147ft 472kts
06-Nov-18 17:37 37.645398 -119.656566 179 34150ft 467kts
06-Nov-18 17:38 37.515445 -119.641804 179 34112ft 468kts
06-Nov-18 17:39 37.385654 -119.627086 179 34099ft 468kts
06-Nov-18 17:40 37.256046 -119.612470 179 34078ft 468kts
06-Nov-18 17:41 37.125978 -119.597869 179 34062ft 469kts
06-Nov-18 17:42 36.996459 -119.596209 186 34050ft 465kts
06-Nov-18 17:43 36.866975 -119.599276 185 34042ft 465kts
06-Nov-18 17:44 36.737696 -119.601721 185 34039ft 466kts
06-Nov-18 17:45 36.607979 -119.604016 185 34042ft 466kts
06-Nov-18 17:46 36.478541 -119.606251 186 32765ft 464kts
06-Nov-18 17:47 36.350242 -119.608448 186 30755ft 447kts
06-Nov-18 17:48 36.227582 -119.610548 186 28760ft 437kts
06-Nov-18 17:49 36.106826 -119.612600 185 26757ft 434kts
06-Nov-18 17:50 35.985514 -119.614654 185 24759ft 431kts
06-Nov-18 17:51 35.868149 -119.618859 186 24038ft 417kts
06-Nov-18 17:52 35.759186 -119.622928 187 24025ft 364kts
06-Nov-18 17:53 35.664638 -119.626425 187 24016ft 318kts
06-Nov-18 17:54 35.573994 -119.629787 186 21783ft 353kts
06-Nov-18 17:55 35.468384 -119.633681 185 18761ft 387kts
06-Nov-18 17:56 35.364972 -119.637464 185 17585ft 364kts
06-Nov-18 17:57 35.264352 -119.641139 185 15995ft 358kts
06-Nov-18 17:58 35.165975 -119.645108 185 14459ft 351kts
06-Nov-18 17:59 35.069626 -119.649704 185 13992ft 346kts
06-Nov-18 18:00 34.972833 -119.654508 185 13921ft 348kts
06-Nov-18 18:01 34.880762 -119.658600 185 13575ft 313kts
06-Nov-18 18:02 34.794899 -119.662127 185 12473ft 306kts
06-Nov-18 18:03 34.710205 -119.666236 185 11384ft 303kts
06-Nov-18 18:04 34.626611 -119.671784 185 10296ft 299kts
06-Nov-18 18:05 34.544788 -119.679064 185 9247ft 283kts
06-Nov-18 18:06 34.468972 -119.673223 136 8130ft 275kts
06-Nov-18 18:07 34.425147 -119.600015 122 7111ft 266kts
06-Nov-18 18:08 34.384268 -119.527092 122 5749ft 256kts
06-Nov-18 18:09 34.347518 -119.460453 122 4957ft 230kts
06-Nov-18 18:10 34.313223 -119.396915 122 4144ft 209kts
06-Nov-18 18:11 34.279999 -119.341817 156 3942ft 206kts
06-Nov-18 18:12 34.250917 -119.381286 294 4008ft 203kts
06-Nov-18 18:13 34.278538 -119.441035 297 4005ft 203kts
06-Nov-18 18:14 34.304348 -119.502705 297 3700ft 205kts
06-Nov-18 18:15 34.326813 -119.559511 295 3267ft 178kts
06-Nov-18 18:16 34.347799 -119.613661 294 2875ft 178kts
06-Nov-18 18:17 34.368652 -119.667640 294 2478ft 175kts
06-Nov-18 18:18 34.389245 -119.721315 294 1894ft 176kts
06-Nov-18 18:19 34.408084 -119.771390 293 1102ft 146kts
06-Nov-18 18:20 34.426172 -119.813020 284 399ft 140kts
06-Nov-18 18:21 34.427597 -119.849790 268 18ft 40kts
06-Nov-18 18:22 34.426560 -119.851505 123 18ft 6kts
06-Nov-18 18:23 34.426543 -119.846268 88 18ft 19kts
06-Nov-18 18:24 34.426685 -119.839828 88 18ft 14kts
06-Nov-18 18:25 34.425346 -119.837843 126 18ft 3kts
06-Nov-18 18:26 34.425123 -119.837261 114 18ft 0kts
06-Nov-18 18:27 34.425123 -119.837261 114 18ft 0kts
06-Nov-18 18:28 34.425123 -119.837261 114 18ft 0kts
06-Nov-18 18:29 34.425123 -119.837261 114 18ft 0kts
06-Nov-18 18:30 34.425123 -119.837261 114 18ft 0kts

Navigation Log

Ident Type
Flight plan parsing failed, navigation log unavailable